Time;durP1;ratioP1;P1;durP2;ratioP2;P2;SDS_P1;SDS_P2;PMS_P1;PMS_P2;Temp;Humidity;BMP_temperature;BMP_pressure;BME280_temperature;BME280_humidity;BME280_pressure;Samples;Min_cycle;Max_cycle;Signal;HPM_P1;HPM_P2
2022/05/22 00:07:06;;;;;;;0.20;0.00;;;20.00;99.90;;;;;;26405609;22;20165;-72
2022/05/22 00:17:12;;;;;;;0.20;0.00;;;19.60;99.90;;;;;;26376179;22;20166;-72
2022/05/22 00:27:16;;;;;;;0.20;0.10;;;19.60;99.90;;;;;;26400148;22;20208;-72
2022/05/22 00:37:22;;;;;;;0.20;0.10;;;19.30;99.90;;;;;;26401594;22;20198;-72
2022/05/22 00:47:26;;;;;;;0.20;0.10;;;19.30;99.90;;;;;;26429599;22;20167;-71
2022/05/22 00:57:35;;;;;;;0.20;0.00;;;19.00;99.90;;;;;;26399378;22;20197;-72
2022/05/22 01:07:39;;;;;;;0.20;0.10;;;19.30;99.90;;;;;;26401624;22;20166;-72
2022/05/22 01:17:48;;;;;;;0.20;0.10;;;19.20;99.90;;;;;;26429669;22;20190;-72
2022/05/22 01:27:54;;;;;;;0.20;0.00;;;18.90;99.90;;;;;;26401618;22;20212;-72
2022/05/22 01:37:59;;;;;;;0.20;0.00;;;19.10;99.90;;;;;;26428653;22;20193;-71
2022/05/22 01:48:04;;;;;;;0.20;0.10;;;19.00;99.90;;;;;;26399365;22;20197;-72
2022/05/22 01:58:08;;;;;;;0.20;0.10;;;19.20;99.90;;;;;;26428166;22;20197;-72
2022/05/22 02:08:21;;;;;;;0.20;0.10;;;19.30;99.90;;;;;;26401513;22;20197;-72
2022/05/22 02:18:26;;;;;;;0.20;0.10;;;19.00;99.90;;;;;;26399614;22;20182;-73
2022/05/22 02:28:31;;;;;;;0.20;0.10;;;18.40;99.90;;;;;;26400938;22;20186;-72
2022/05/22 02:38:35;;;;;;;0.20;0.10;;;18.40;99.90;;;;;;26397864;22;20186;-72
2022/05/22 02:48:41;;;;;;;0.30;0.30;;;18.10;99.90;;;;;;26404952;22;20167;-73
2022/05/22 02:58:45;;;;;;;0.20;0.10;;;18.10;99.90;;;;;;26405925;22;20182;-74
2022/05/22 03:08:50;;;;;;;0.20;0.10;;;17.80;99.90;;;;;;26405630;22;20166;-73
2022/05/22 03:18:54;;;;;;;0.20;0.10;;;17.90;99.90;;;;;;26421706;22;20205;-72
2022/05/22 03:28:59;;;;;;;0.20;0.10;;;17.60;99.90;;;;;;26301063;22;20162;-72
2022/05/22 03:39:03;;;;;;;0.20;0.10;;;17.50;99.90;;;;;;26302423;22;20182;-72
2022/05/22 03:49:08;;;;;;;0.20;0.10;;;17.40;99.90;;;;;;26299917;22;20182;-72
2022/05/22 03:59:12;;;;;;;0.20;0.10;;;17.40;99.90;;;;;;26301405;22;20186;-72
2022/05/22 04:09:18;;;;;;;0.20;0.10;;;17.80;99.90;;;;;;26298574;22;20163;-71
2022/05/22 04:19:22;;;;;;;0.20;0.00;;;17.80;99.90;;;;;;26299542;22;20199;-71
2022/05/22 04:29:27;;;;;;;0.20;0.10;;;17.40;99.90;;;;;;26299192;22;20178;-71
2022/05/22 04:39:31;;;;;;;0.20;0.10;;;17.00;99.90;;;;;;26299620;22;20195;-72
2022/05/22 04:49:36;;;;;;;0.20;0.10;;;16.90;99.90;;;;;;26270819;22;20163;-72
2022/05/22 04:59:40;;;;;;;0.20;0.10;;;17.30;99.90;;;;;;26267669;22;20194;-71
2022/05/22 05:09:46;;;;;;;0.20;0.10;;;17.20;99.90;;;;;;26296765;22;20163;-71
2022/05/22 05:19:50;;;;;;;0.20;0.10;;;17.70;99.90;;;;;;26309337;22;20206;-72
2022/05/22 05:29:57;;;;;;;0.20;0.00;;;17.90;99.90;;;;;;26428205;22;20166;-73
2022/05/22 05:40:01;;;;;;;0.20;0.10;;;18.50;99.90;;;;;;26426644;22;20182;-72
2022/05/22 05:50:07;;;;;;;0.20;0.00;;;18.70;99.90;;;;;;26427471;22;20162;-71
2022/05/22 06:00:16;;;;;;;0.20;0.07;;;19.30;99.90;;;;;;26398790;22;20194;-71
2022/05/22 06:10:22;;;;;;;0.20;0.00;;;20.20;99.90;;;;;;26426436;22;20162;-72
2022/05/22 06:20:26;;;;;;;0.20;0.03;;;20.80;99.90;;;;;;26401124;22;20198;-71
2022/05/22 06:30:31;;;;;;;0.20;0.10;;;21.30;99.90;;;;;;26430855;22;20159;-71
2022/05/22 06:40:38;;;;;;;0.20;0.00;;;21.60;99.90;;;;;;26403415;22;20185;-72
2022/05/22 06:50:43;;;;;;;0.20;0.07;;;21.40;99.90;;;;;;26402686;22;20169;-71
2022/05/22 07:00:52;;;;;;;0.20;0.00;;;21.90;99.90;;;;;;26433425;22;20193;-71
2022/05/22 07:21:19;;;;;;;0.20;0.00;;;22.50;99.90;;;;;;26429236;22;20197;-73
2022/05/22 07:31:25;;;;;;;0.20;0.00;;;22.80;99.90;;;;;;26403985;22;20166;-73
2022/05/22 07:41:31;;;;;;;0.20;0.00;;;22.80;99.90;;;;;;26402437;22;20197;-68
2022/05/22 07:51:36;;;;;;;0.20;0.10;;;23.00;99.90;;;;;;26427711;22;20296;-68
2022/05/22 08:01:40;;;;;;;0.20;0.00;;;23.20;99.90;;;;;;26429063;22;20190;-71
2022/05/22 08:11:45;;;;;;;0.20;0.00;;;23.50;99.90;;;;;;26424361;22;20173;-71
2022/05/22 08:21:49;;;;;;;0.20;0.00;;;23.70;99.90;;;;;;26389218;22;20226;-72
2022/05/22 08:31:54;;;;;;;0.20;0.10;;;23.10;99.90;;;;;;26267148;22;20174;-71
2022/05/22 08:42:00;;;;;;;0.20;0.00;;;23.20;99.90;;;;;;26265424;22;20294;-71
2022/05/22 08:52:17;;;;;;;0.20;0.00;;;23.40;99.90;;;;;;26290272;22;20178;-72
2022/05/22 09:02:33;;;;;;;0.20;0.00;;;23.40;99.90;;;;;;26291286;22;20183;-71
2022/05/22 09:12:58;;;;;;;0.20;0.00;;;23.60;99.90;;;;;;26290937;22;20182;-72
2022/05/22 10:37:38;;;;;;;0.20;0.10;;;26.30;99.90;;;;;;26424412;22;20190;-72
2022/05/22 10:47:43;;;;;;;0.20;0.00;;;27.30;99.90;;;;;;26428579;22;20196;-71
2022/05/22 10:57:57;;;;;;;0.20;0.10;;;27.70;99.90;;;;;;26370735;22;20193;-75
2022/05/22 11:08:00;;;;;;;0.20;0.00;;;28.70;99.90;;;;;;26424793;22;20181;-73
2022/05/22 11:18:11;;;;;;;0.20;0.00;;;28.80;99.90;;;;;;26425052;22;20248;-73
2022/05/22 11:28:42;;;;;;;0.20;0.00;;;29.60;99.90;;;;;;26424859;22;20182;-77
2022/05/22 11:38:57;;;;;;;0.20;0.10;;;29.80;99.90;;;;;;26399753;22;20177;-72
2022/05/22 11:49:18;;;;;;;0.20;0.10;;;29.60;99.90;;;;;;26425080;22;20221;-71
2022/05/22 11:59:44;;;;;;;0.20;0.00;;;30.20;99.90;;;;;;26394124;22;20198;-73
2022/05/22 12:09:56;;;;;;;0.20;0.00;;;30.00;99.90;;;;;;26424484;22;20260;-74
2022/05/22 12:20:10;;;;;;;0.20;0.00;;;29.40;99.90;;;;;;26424386;22;20188;-74
2022/05/22 12:30:20;;;;;;;0.20;0.00;;;28.80;99.90;;;;;;26398190;22;20194;-75
2022/05/22 12:40:39;;;;;;;0.20;0.08;;;29.70;99.90;;;;;;26396679;22;20193;-73
2022/05/22 12:50:48;;;;;;;0.20;0.00;;;30.00;99.90;;;;;;26424302;22;20219;-73
2022/05/22 13:00:55;;;;;;;0.20;0.00;;;30.10;99.90;;;;;;26425367;22;20215;-72
2022/05/22 13:11:00;;;;;;;0.20;0.05;;;30.90;99.90;;;;;;26425377;22;20162;-74
2022/05/22 13:21:12;;;;;;;0.20;0.20;;;29.50;99.90;;;;;;26425180;22;20181;-71
2022/05/22 13:31:43;;;;;;;0.57;0.57;;;31.50;99.90;;;;;;26425335;22;20189;-73
2022/05/22 13:42:42;;;;;;;0.20;0.00;;;31.30;99.90;;;;;;26419978;22;20190;-73
2022/05/22 13:53:02;;;;;;;0.20;0.10;;;30.80;99.90;;;;;;26395851;22;20211;-73
2022/05/22 14:03:10;;;;;;;0.20;0.00;;;31.70;99.90;;;;;;26418453;22;20197;-73
2022/05/22 14:13:17;;;;;;;0.52;0.50;;;30.90;99.90;;;;;;26420378;22;20157;-72
2022/05/22 14:23:27;;;;;;;0.20;0.00;;;31.60;99.90;;;;;;26390631;22;20198;-73
2022/05/22 14:33:35;;;;;;;0.22;0.20;;;31.60;99.90;;;;;;26416264;22;20201;-72
2022/05/22 14:43:44;;;;;;;0.20;0.00;;;31.40;99.90;;;;;;26422060;22;21191;-71
2022/05/22 14:53:48;;;;;;;0.20;0.00;;;31.60;99.90;;;;;;26398019;22;20186;-71
2022/05/22 15:03:54;;;;;;;0.20;0.00;;;31.10;99.90;;;;;;26424355;22;20182;-73
2022/05/22 15:14:00;;;;;;;0.20;0.00;;;31.40;99.90;;;;;;26398751;22;20220;-71
2022/05/22 15:34:32;;;;;;;0.20;0.00;;;30.90;99.90;;;;;;26423308;22;20197;-74
2022/05/22 15:44:43;;;;;;;0.20;0.00;;;30.40;99.90;;;;;;26422079;22;20883;-74
2022/05/22 15:54:47;;;;;;;0.20;0.00;;;30.10;99.90;;;;;;26394429;22;20193;-74
2022/05/22 16:04:53;;;;;;;15.10;13.65;;;29.60;99.90;;;;;;26421046;22;20182;-73
2022/05/22 16:14:57;;;;;;;0.20;0.00;;;28.50;99.90;;;;;;26419555;22;20219;-74
2022/05/22 16:25:02;;;;;;;0.20;0.10;;;27.20;99.90;;;;;;26419068;22;20193;-74
2022/05/22 16:35:07;;;;;;;0.20;0.00;;;27.30;99.90;;;;;;26393522;22;20186;-75
2022/05/22 16:45:15;;;;;;;0.20;0.00;;;26.80;99.90;;;;;;26391804;22;20193;-74
2022/05/22 16:55:20;;;;;;;0.20;0.00;;;26.80;99.90;;;;;;26387464;22;20186;-73
2022/05/22 17:05:25;;;;;;;0.20;0.00;;;26.50;99.90;;;;;;26388553;22;20188;-74
2022/05/22 17:15:29;;;;;;;0.20;0.00;;;26.20;99.90;;;;;;26416447;22;20166;-73
2022/05/22 17:25:35;;;;;;;0.20;0.00;;;26.00;99.90;;;;;;26388368;22;20186;-73
2022/05/22 17:35:39;;;;;;;0.20;0.00;;;26.60;99.90;;;;;;26415897;22;20238;-74
2022/05/22 17:45:45;;;;;;;0.20;0.00;;;27.10;99.90;;;;;;26419137;22;20210;-74
2022/05/22 17:55:51;;;;;;;0.20;0.10;;;27.60;99.90;;;;;;26415807;22;20186;-74
2022/05/22 18:05:56;;;;;;;0.20;0.00;;;26.60;99.90;;;;;;26389516;22;20178;-74
2022/05/22 18:16:03;;;;;;;0.20;0.10;;;26.30;99.90;;;;;;26396694;22;20162;-73
2022/05/22 18:26:08;;;;;;;0.20;0.00;;;26.00;99.90;;;;;;26400276;22;20182;-73
2022/05/22 18:36:14;;;;;;;1.65;1.35;;;25.60;99.90;;;;;;26428841;22;20179;-72
2022/05/22 18:46:19;;;;;;;0.20;0.00;;;24.80;99.90;;;;;;26400035;22;20186;-71
2022/05/22 18:56:27;;;;;;;0.20;0.10;;;24.20;99.90;;;;;;26426654;22;20230;-72
2022/05/22 19:06:32;;;;;;;0.20;0.03;;;24.00;99.90;;;;;;26426234;22;20241;-72
2022/05/22 19:16:41;;;;;;;0.20;0.00;;;23.70;99.90;;;;;;26401957;22;20174;-73
2022/05/22 19:26:49;;;;;;;0.20;0.00;;;23.40;99.90;;;;;;26427828;22;20698;-74
2022/05/22 19:36:54;;;;;;;0.20;0.00;;;23.40;99.90;;;;;;26424101;22;20186;-71
2022/05/22 19:47:02;;;;;;;0.20;0.00;;;23.00;99.90;;;;;;26399414;22;20201;-72
2022/05/22 20:07:40;;;;;;;0.20;0.00;;;22.30;99.90;;;;;;26330701;22;20203;-72
2022/05/22 20:17:44;;;;;;;0.20;0.00;;;22.10;99.90;;;;;;26426786;22;20166;-73
2022/05/22 20:27:50;;;;;;;0.20;0.00;;;21.90;99.90;;;;;;26425762;22;20182;-70
2022/05/22 20:37:53;;;;;;;0.20;0.00;;;22.00;99.90;;;;;;26412058;22;20190;-71
2022/05/22 20:48:01;;;;;;;1.27;1.27;;;22.00;99.90;;;;;;26424781;22;20169;-71
2022/05/22 20:58:06;;;;;;;0.20;0.00;;;21.70;99.90;;;;;;26395768;22;20211;-73
2022/05/22 21:08:13;;;;;;;0.20;0.10;;;21.80;99.90;;;;;;26398321;22;20190;-72
2022/05/22 21:18:17;;;;;;;0.20;0.00;;;21.60;99.90;;;;;;26425895;22;20162;-70
2022/05/22 21:28:31;;;;;;;0.20;0.10;;;21.20;99.90;;;;;;26424662;22;20200;-71
2022/05/22 21:38:39;;;;;;;0.20;0.00;;;21.20;99.90;;;;;;26421485;22;20203;-72
2022/05/22 21:48:44;;;;;;;0.20;0.00;;;21.30;99.90;;;;;;26427711;22;20197;-71
2022/05/22 21:58:49;;;;;;;0.20;0.10;;;21.10;99.90;;;;;;26440582;22;20182;-73
2022/05/22 22:08:54;;;;;;;0.20;0.10;;;21.00;99.90;;;;;;26415882;22;20186;-71
2022/05/22 22:18:58;;;;;;;0.20;0.00;;;20.80;99.90;;;;;;26442149;22;20170;-73
2022/05/22 22:29:03;;;;;;;0.20;0.10;;;20.80;99.90;;;;;;26400287;22;20213;-73
2022/05/22 22:39:07;;;;;;;0.20;0.10;;;20.80;99.90;;;;;;26414021;22;20158;-73
2022/05/22 22:49:12;;;;;;;0.20;0.00;;;20.70;99.90;;;;;;26415879;22;20181;-72
2022/05/22 22:59:17;;;;;;;0.20;0.10;;;20.80;99.90;;;;;;26441505;22;20182;-74
2022/05/22 23:09:22;;;;;;;0.20;0.00;;;21.00;99.90;;;;;;26406369;22;20178;-75
2022/05/22 23:19:26;;;;;;;0.20;0.00;;;21.30;99.90;;;;;;26406682;22;21132;-74
2022/05/22 23:29:32;;;;;;;0.20;0.10;;;21.20;99.90;;;;;;26403597;22;20326;-74
2022/05/22 23:39:36;;;;;;;0.20;0.00;;;21.10;99.90;;;;;;26434412;22;20166;-74
2022/05/22 23:49:42;;;;;;;0.20;0.00;;;21.20;99.90;;;;;;26432165;22;20192;-75
2022/05/22 23:59:45;;;;;;;0.20;0.00;;;21.30;99.90;;;;;;26433898;22;20201;-74
